createdAt,value
2022-09-06T00:01:14.014Z,64.60
2022-09-06T00:03:41.894Z,64.97
2022-09-06T00:06:11.753Z,67.38
2022-09-06T00:08:39.699Z,35.35
2022-09-06T00:11:08.274Z,32.30
2022-09-06T00:13:37.883Z,43.17
2022-09-06T00:16:08.071Z,50.90
2022-09-06T00:18:35.692Z,41.42
2022-09-06T00:21:04.271Z,25.27
2022-09-06T00:23:31.770Z,38.17
2022-09-06T00:26:06.012Z,32.92
2022-09-06T00:28:33.509Z,33.05
2022-09-06T00:31:10.557Z,28.60
2022-09-06T00:33:38.360Z,31.13
2022-09-06T00:36:06.450Z,34.85
2022-09-06T00:38:35.016Z,33.17
2022-09-06T00:41:02.836Z,46.72
2022-09-06T00:43:30.362Z,37.17
2022-09-06T00:45:58.338Z,33.10
2022-09-06T00:48:27.383Z,36.38
2022-09-06T00:50:58.066Z,64.88
2022-09-06T00:53:26.653Z,62.15
2022-09-06T00:55:55.648Z,37.10
2022-09-06T00:58:23.760Z,41.53
2022-09-06T01:00:51.790Z,33.60
2022-09-06T01:03:20.009Z,30.77
2022-09-06T01:05:58.739Z,25.23
2022-09-06T01:08:39.844Z,30.30
2022-09-06T01:11:24.324Z,24.05
2022-09-06T01:14:00.527Z,32.63
2022-09-06T01:16:38.268Z,28.60
2022-09-06T01:19:33.922Z,32.22
2022-09-06T01:22:15.220Z,33.95
2022-09-06T01:25:02.650Z,29.08
2022-09-06T01:28:05.249Z,28.33
2022-09-06T01:30:38.286Z,33.22
2022-09-06T01:33:15.160Z,34.30
2022-09-06T01:35:48.984Z,37.58
2022-09-06T01:38:17.509Z,43.47
2022-09-06T01:40:45.062Z,50.97
2022-09-06T01:43:21.184Z,55.63
2022-09-06T01:46:00.185Z,41.75
2022-09-06T01:48:36.974Z,42.85
2022-09-06T01:51:23.846Z,40.58
2022-09-06T01:54:08.504Z,28.73
2022-09-06T01:56:44.271Z,30.08
2022-09-06T01:59:40.443Z,38.42
2022-09-06T02:02:13.937Z,45.47
2022-09-06T02:04:45.938Z,37.35
2022-09-06T02:07:21.207Z,40.97
2022-09-06T02:09:55.776Z,45.65
2022-09-06T02:12:27.004Z,67.78
2022-09-06T02:14:59.305Z,68.15
2022-09-06T02:17:33.915Z,45.92
2022-09-06T02:20:06.267Z,55.60
2022-09-06T02:22:38.715Z,45.30
2022-09-06T02:25:10.026Z,46.25
2022-09-06T02:27:37.738Z,60.33
2022-09-06T02:30:07.813Z,60.15
2022-09-06T02:32:40.150Z,57.00
2022-09-06T02:35:13.811Z,31.80
2022-09-06T02:37:42.297Z,42.45
2022-09-06T02:40:11.704Z,30.08
2022-09-06T02:42:40.437Z,38.85
2022-09-06T02:45:10.543Z,42.80
2022-09-06T02:47:38.048Z,35.85
2022-09-06T02:50:06.617Z,27.67
2022-09-06T02:52:34.107Z,31.70
2022-09-06T02:55:01.580Z,28.63
2022-09-06T02:57:29.097Z,28.65
2022-09-06T02:59:56.594Z,44.33
2022-09-06T03:02:25.960Z,85.47
2022-09-06T03:04:53.517Z,70.70
2022-09-06T03:07:21.047Z,77.65
2022-09-06T03:09:48.539Z,53.92
2022-09-06T03:12:16.029Z,41.25
2022-09-06T03:14:43.507Z,67.13
2022-09-06T03:17:10.986Z,47.55
2022-09-06T03:19:39.825Z,61.40
2022-09-06T03:22:07.327Z,51.22
2022-09-06T03:24:34.809Z,49.38
2022-09-06T03:27:02.321Z,44.40
2022-09-06T03:29:29.807Z,45.72
2022-09-06T03:31:57.295Z,48.00
2022-09-06T03:34:24.795Z,57.38
2022-09-06T03:36:53.606Z,61.47
2022-09-06T03:39:21.241Z,39.25
2022-09-06T03:41:48.747Z,40.75
2022-09-06T03:44:16.241Z,39.08
2022-09-06T03:46:43.735Z,31.40
2022-09-06T03:49:11.243Z,33.50
2022-09-06T03:51:38.729Z,42.30
2022-09-06T03:54:07.641Z,32.28
2022-09-06T03:56:35.377Z,30.25
2022-09-06T03:59:02.867Z,38.28
2022-09-06T04:01:30.438Z,40.03
2022-09-06T04:03:58.001Z,50.40
2022-09-06T04:06:25.505Z,42.45
2022-09-06T04:08:53.006Z,52.40
2022-09-06T04:11:21.856Z,41.45
2022-09-06T04:13:49.355Z,44.67
2022-09-06T04:16:17.707Z,50.60
2022-09-06T04:18:45.552Z,44.03
2022-09-06T04:21:13.075Z,42.42
2022-09-06T04:23:40.804Z,75.55
2022-09-06T04:26:08.416Z,41.10
2022-09-06T04:28:37.283Z,58.70
2022-09-06T04:31:05.510Z,56.08
2022-09-06T04:33:34.540Z,54.88
2022-09-06T04:36:03.896Z,57.33
2022-09-06T04:38:35.396Z,84.72
2022-09-06T04:41:03.083Z,80.88
2022-09-06T04:43:30.571Z,76.85
2022-09-06T04:46:03.998Z,49.75
2022-09-06T04:48:31.511Z,56.33
2022-09-06T04:50:59.019Z,55.83
2022-09-06T04:53:26.511Z,59.97
2022-09-06T04:55:54.090Z,86.32
2022-09-06T04:58:21.616Z,92.03
2022-09-06T05:00:49.254Z,84.88
2022-09-06T05:03:18.123Z,79.22
2022-09-06T05:05:45.625Z,85.10
2022-09-06T05:08:13.102Z,51.28
2022-09-06T05:10:40.590Z,60.92
2022-09-06T05:13:08.324Z,54.35
2022-09-06T05:15:35.881Z,60.13
2022-09-06T05:18:04.780Z,41.47
2022-09-06T05:20:33.671Z,37.58
2022-09-06T05:23:01.564Z,27.88
2022-09-06T05:25:29.064Z,24.73
2022-09-06T05:27:56.605Z,19.48
2022-09-06T05:30:24.087Z,29.40
2022-09-06T05:32:52.125Z,26.13
2022-09-06T05:35:19.648Z,29.75
2022-09-06T05:37:48.517Z,39.53
2022-09-06T05:40:16.205Z,34.30
2022-09-06T05:42:43.719Z,42.97
2022-09-06T05:45:11.512Z,41.17
2022-09-06T05:47:39.078Z,33.10
2022-09-06T05:50:07.920Z,36.65
2022-09-06T05:52:36.272Z,45.53
2022-09-06T05:55:06.578Z,44.33
2022-09-06T05:57:34.142Z,46.60
2022-09-06T06:00:01.626Z,44.95
2022-09-06T06:02:29.153Z,41.15
2022-09-06T06:04:58.231Z,45.95
2022-09-06T06:07:25.828Z,40.72
2022-09-06T06:09:53.308Z,40.28
2022-09-06T06:12:22.148Z,42.03
2022-09-06T06:14:49.664Z,29.35
2022-09-06T06:17:17.321Z,31.48
2022-09-06T06:19:44.812Z,24.77
2022-09-06T06:22:12.296Z,33.17
2022-09-06T06:24:39.791Z,33.13
2022-09-06T06:27:07.315Z,30.10
2022-09-06T06:29:36.134Z,32.70
2022-09-06T06:32:04.214Z,22.77
2022-09-06T06:34:31.768Z,38.67
2022-09-06T06:36:59.903Z,35.97
2022-09-06T06:39:27.641Z,27.35
2022-09-06T06:41:55.596Z,19.70
2022-09-06T06:44:23.152Z,16.15
2022-09-06T06:46:52.052Z,18.45
2022-09-06T06:49:19.549Z,17.27
2022-09-06T06:51:47.045Z,16.45
2022-09-06T06:54:14.521Z,15.13
2022-09-06T06:56:42.260Z,21.08
2022-09-06T06:59:09.928Z,20.30
2022-09-06T07:01:38.579Z,13.38
2022-09-06T07:04:10.361Z,24.30
2022-09-06T07:12:24.577Z,24.42
2022-09-06T07:14:52.311Z,28.20
2022-09-06T07:17:19.800Z,15.18
2022-09-06T07:22:36.087Z,12.50
2022-09-06T07:25:03.874Z,18.65
2022-09-06T07:27:47.755Z,23.90
2022-09-06T07:30:16.559Z,16.33
2022-09-06T07:32:44.065Z,16.17
2022-09-06T07:35:13.780Z,18.92
2022-09-06T07:37:41.289Z,15.68
2022-09-06T07:40:10.278Z,25.38
2022-09-06T07:42:37.917Z,27.75
2022-09-06T07:45:05.926Z,30.80
2022-09-06T07:53:14.994Z,43.13
2022-09-06T07:55:45.149Z,40.42
2022-09-06T07:58:12.677Z,31.73
2022-09-06T08:00:41.110Z,37.97
2022-09-06T08:03:08.936Z,19.42
2022-09-06T08:11:13.561Z,40.35
2022-09-06T08:13:41.653Z,39.95
2022-09-06T08:16:11.325Z,35.63
2022-09-06T08:18:39.401Z,34.25
2022-09-06T08:21:12.603Z,45.35
2022-09-06T08:23:43.076Z,31.65
2022-09-06T08:26:10.611Z,31.35
2022-09-06T08:28:38.237Z,38.47
2022-09-06T08:31:07.378Z,27.73
2022-09-06T08:33:34.912Z,39.22
2022-09-06T08:36:02.703Z,34.88
2022-09-06T08:38:31.583Z,24.83
2022-09-06T08:41:09.696Z,35.42
2022-09-06T08:43:38.108Z,33.15
2022-09-06T08:46:08.730Z,32.72
2022-09-06T08:48:39.844Z,24.75
2022-09-06T08:51:38.539Z,33.63
2022-09-06T08:54:17.677Z,29.33
2022-09-06T08:57:04.265Z,22.10
2022-09-06T08:59:38.538Z,28.10
2022-09-06T09:02:12.450Z,28.55
2022-09-06T09:04:43.945Z,28.83
2022-09-06T09:07:30.672Z,24.05
2022-09-06T09:10:03.427Z,19.38
2022-09-06T09:12:37.863Z,29.30
2022-09-06T09:15:10.428Z,19.25
2022-09-06T09:17:38.237Z,22.40
2022-09-06T09:20:08.323Z,20.75
2022-09-06T09:22:36.332Z,15.10
2022-09-06T09:25:08.145Z,19.00
2022-09-06T09:27:37.693Z,22.80
2022-09-06T09:32:54.814Z,26.65
2022-09-06T09:35:27.973Z,25.63
2022-09-06T09:38:07.736Z,42.67
2022-09-06T09:40:41.673Z,30.80
2022-09-06T09:43:17.753Z,20.02
2022-09-06T09:45:46.170Z,17.30
2022-09-06T09:48:20.708Z,36.88
2022-09-06T09:50:48.736Z,33.97
2022-09-06T09:53:18.505Z,29.63
2022-09-06T09:55:47.653Z,19.13
2022-09-06T09:58:30.431Z,38.03
2022-09-06T10:01:13.099Z,23.70
2022-09-06T10:09:21.571Z,30.80
2022-09-06T10:11:55.840Z,31.95
2022-09-06T10:14:28.672Z,34.83
2022-09-06T10:16:56.538Z,15.57
2022-09-06T10:19:36.489Z,21.85
2022-09-06T10:22:14.872Z,26.42
2022-09-06T10:24:57.484Z,25.25
2022-09-06T10:27:28.577Z,32.40
2022-09-06T10:30:01.705Z,28.08
2022-09-06T10:32:41.246Z,38.83
2022-09-06T10:35:17.680Z,34.08
2022-09-06T10:38:07.520Z,25.95
2022-09-06T10:40:42.256Z,23.33
2022-09-06T10:43:18.384Z,27.33
2022-09-06T10:45:50.121Z,30.67
2022-09-06T10:48:22.590Z,33.45
2022-09-06T10:50:54.328Z,19.08
2022-09-06T10:53:35.637Z,38.97
2022-09-06T10:56:07.948Z,27.20
2022-09-06T11:01:37.720Z,24.17
2022-09-06T11:04:12.946Z,9.18
2022-09-06T11:06:46.479Z,6.25
2022-09-06T11:09:23.935Z,8.40
2022-09-06T11:11:59.571Z,13.57
2022-09-06T11:14:30.076Z,34.22
2022-09-06T11:17:01.700Z,29.08
2022-09-06T11:19:32.990Z,30.98
2022-09-06T11:22:30.069Z,38.15
2022-09-06T11:25:23.488Z,32.35
2022-09-06T11:27:58.148Z,37.15
2022-09-06T11:30:29.787Z,36.15
2022-09-06T11:33:11.246Z,32.55
2022-09-06T11:35:40.932Z,22.77
2022-09-06T11:38:24.168Z,27.55
2022-09-06T11:41:00.258Z,26.92
2022-09-06T11:43:49.310Z,27.95
2022-09-06T11:46:52.901Z,32.35
2022-09-06T11:49:37.267Z,28.35
2022-09-06T11:52:38.062Z,20.30
2022-09-06T11:55:11.342Z,30.52
2022-09-06T11:57:40.700Z,9.63
2022-09-06T12:00:18.260Z,10.95
2022-09-06T12:02:46.107Z,34.75
2022-09-06T12:05:29.734Z,29.15
2022-09-06T12:08:34.594Z,18.65
2022-09-06T12:11:05.577Z,13.27
2022-09-06T12:13:52.266Z,14.85
2022-09-06T12:16:20.726Z,20.05
2022-09-06T12:19:00.020Z,27.70
2022-09-06T12:21:42.153Z,26.95
2022-09-06T12:24:30.925Z,29.40
2022-09-06T12:27:15.613Z,22.15
2022-09-06T12:29:51.511Z,33.35
2022-09-06T12:32:23.264Z,27.10
2022-09-06T12:37:54.741Z,15.15
2022-09-06T12:40:23.949Z,17.40
2022-09-06T12:42:53.863Z,35.35
2022-09-06T12:45:27.234Z,28.30
2022-09-06T12:48:06.008Z,30.33
2022-09-06T12:50:34.080Z,26.08
2022-09-06T12:53:03.433Z,14.82
2022-09-06T12:55:33.079Z,26.50
2022-09-06T12:58:04.058Z,31.10
2022-09-06T13:00:35.408Z,7.97
2022-09-06T13:03:09.728Z,17.73
2022-09-06T13:05:40.298Z,25.65
2022-09-06T13:08:14.573Z,25.73
2022-09-06T13:10:44.456Z,8.68
2022-09-06T13:13:21.780Z,35.80
2022-09-06T13:15:49.571Z,23.70
2022-09-06T13:18:22.409Z,26.83
2022-09-06T13:21:00.037Z,33.88
2022-09-06T13:23:27.703Z,36.33
2022-09-06T13:25:56.235Z,38.72
2022-09-06T13:28:30.929Z,9.80
2022-09-06T13:31:08.915Z,31.38
2022-09-06T13:33:37.735Z,31.67
2022-09-06T13:36:09.313Z,14.90
2022-09-06T13:38:41.595Z,21.38
2022-09-06T13:41:37.810Z,30.80
2022-09-06T13:44:12.466Z,32.45
2022-09-06T13:46:39.999Z,30.85
2022-09-06T13:49:08.004Z,20.83
2022-09-06T13:51:35.835Z,25.40
2022-09-06T13:54:07.728Z,39.00
2022-09-06T13:56:35.801Z,15.73
2022-09-06T13:59:04.155Z,16.48
2022-09-06T14:01:33.487Z,16.10
2022-09-06T14:04:01.212Z,23.25
2022-09-06T14:06:29.078Z,22.20
2022-09-06T14:09:13.509Z,35.10
2022-09-06T14:11:47.472Z,27.95
2022-09-06T14:14:17.663Z,32.72
2022-09-06T14:16:47.509Z,37.85
2022-09-06T14:19:15.370Z,25.85
2022-09-06T14:21:43.223Z,42.20
2022-09-06T14:24:10.828Z,39.70
2022-09-06T14:26:38.618Z,38.58
2022-09-06T14:29:06.798Z,31.65
2022-09-06T14:31:34.577Z,24.63
2022-09-06T14:34:04.157Z,32.55
2022-09-06T14:36:33.345Z,43.45
2022-09-06T14:39:01.781Z,42.38
2022-09-06T14:41:29.852Z,48.13
2022-09-06T14:43:59.533Z,40.67
2022-09-06T14:46:28.215Z,36.03
2022-09-06T14:49:00.989Z,40.95
2022-09-06T14:51:31.136Z,35.05
2022-09-06T14:54:00.883Z,34.78
2022-09-06T14:56:28.384Z,47.13
2022-09-06T14:58:57.425Z,43.13
2022-09-06T15:01:27.297Z,42.33
2022-09-06T15:03:57.022Z,34.42
2022-09-06T15:06:26.055Z,39.00
2022-09-06T15:08:59.104Z,39.75
2022-09-06T15:11:31.377Z,37.10
2022-09-06T15:13:59.439Z,38.60
2022-09-06T15:16:27.412Z,36.65
2022-09-06T15:18:55.172Z,40.80
2022-09-06T15:21:23.321Z,34.70
2022-09-06T15:23:52.180Z,35.03
2022-09-06T15:26:21.664Z,28.63
2022-09-06T15:28:50.240Z,38.72
2022-09-06T15:31:19.452Z,28.90
2022-09-06T15:33:48.769Z,26.83
2022-09-06T15:36:16.890Z,38.65
2022-09-06T15:38:47.361Z,16.30
2022-09-06T15:41:16.756Z,29.80
2022-09-06T15:43:47.814Z,24.75
2022-09-06T15:46:16.262Z,8.52
2022-09-06T15:48:46.063Z,20.30
2022-09-06T15:51:15.899Z,13.82
2022-09-06T15:53:44.358Z,8.23
2022-09-06T15:56:14.888Z,11.63
2022-09-06T15:58:42.427Z,15.65
2022-09-06T16:01:13.417Z,6.88
2022-09-06T16:03:42.819Z,20.92
2022-09-06T16:06:28.649Z,20.33
2022-09-06T16:08:59.253Z,16.98
2022-09-06T16:11:27.975Z,18.83
2022-09-06T16:13:55.672Z,15.98
2022-09-06T16:16:24.595Z,23.27
2022-09-06T16:18:53.099Z,28.92
2022-09-06T16:21:23.940Z,18.70
2022-09-06T16:23:53.595Z,24.27
2022-09-06T16:26:22.037Z,21.67
2022-09-06T16:28:50.799Z,22.42
2022-09-06T16:31:18.865Z,17.48
2022-09-06T16:33:48.969Z,20.85
2022-09-06T16:36:17.263Z,21.15
2022-09-06T16:38:45.237Z,38.25
2022-09-06T16:41:15.548Z,42.97
2022-09-06T16:43:43.496Z,39.50
2022-09-06T16:46:12.050Z,34.92
2022-09-06T16:48:41.384Z,34.47
2022-09-06T16:51:11.597Z,48.78
2022-09-06T16:53:41.057Z,42.10
2022-09-06T16:56:09.189Z,40.60
2022-09-06T16:58:36.726Z,38.53
2022-09-06T17:01:04.268Z,38.95
2022-09-06T17:03:31.786Z,36.92
2022-09-06T17:05:59.264Z,40.72
2022-09-06T17:08:28.117Z,39.88
2022-09-06T17:10:55.633Z,36.53
2022-09-06T17:13:23.108Z,34.65
2022-09-06T17:16:11.360Z,37.58
2022-09-06T17:18:39.237Z,43.40
2022-09-06T17:21:07.534Z,39.38
2022-09-06T17:23:37.369Z,40.67
2022-09-06T17:26:06.119Z,32.03
2022-09-06T17:28:34.468Z,37.33
2022-09-06T17:31:03.802Z,30.65
2022-09-06T17:33:32.341Z,26.10
2022-09-06T17:36:07.874Z,29.73
2022-09-06T17:38:36.889Z,30.42
2022-09-06T17:41:04.907Z,36.85
2022-09-06T17:43:32.510Z,17.65
2022-09-06T17:46:00.186Z,19.05
2022-09-06T17:48:29.398Z,11.55
2022-09-06T17:50:57.108Z,13.02
2022-09-06T17:53:24.729Z,14.82
2022-09-06T17:55:53.739Z,13.25
2022-09-06T17:58:21.231Z,14.95
2022-09-06T18:00:48.741Z,16.13
2022-09-06T18:03:16.253Z,14.30
2022-09-06T18:05:45.180Z,14.48
2022-09-06T18:08:12.949Z,16.88
2022-09-06T18:10:40.459Z,15.75
2022-09-06T18:13:09.345Z,15.57
2022-09-06T18:15:41.515Z,14.48
2022-09-06T18:18:09.025Z,13.25
2022-09-06T18:20:36.935Z,12.93
2022-09-06T18:23:04.545Z,15.32
2022-09-06T18:25:32.052Z,15.13
2022-09-06T18:27:59.578Z,14.05
2022-09-06T18:30:28.491Z,19.17
2022-09-06T18:32:55.984Z,16.75
2022-09-06T18:35:23.595Z,15.05
2022-09-06T18:37:51.096Z,13.65
2022-09-06T18:40:18.640Z,18.05
2022-09-06T18:42:46.529Z,23.80
2022-09-06T18:45:14.126Z,23.85
2022-09-06T18:47:44.491Z,26.50
2022-09-06T18:50:12.552Z,22.27
2022-09-06T18:52:40.083Z,25.95
2022-09-06T18:55:08.420Z,27.85
2022-09-06T18:57:35.932Z,29.38
2022-09-06T19:00:05.159Z,27.67
2022-09-06T19:02:32.782Z,27.85
2022-09-06T19:05:01.702Z,36.15
2022-09-06T19:07:29.845Z,31.00
2022-09-06T19:09:57.724Z,32.97
2022-09-06T19:12:25.309Z,38.42
2022-09-06T19:14:52.840Z,34.63
2022-09-06T19:17:20.359Z,38.55
2022-09-06T19:19:47.842Z,37.38
2022-09-06T19:22:17.551Z,33.78
2022-09-06T19:24:45.286Z,35.00
2022-09-06T19:27:12.837Z,44.13
2022-09-06T19:29:40.418Z,44.40
2022-09-06T19:32:07.941Z,49.28
2022-09-06T19:34:35.478Z,47.40
2022-09-06T19:37:03.013Z,47.40
2022-09-06T19:39:36.851Z,56.80
2022-09-06T19:42:05.839Z,49.03
2022-09-06T19:44:33.486Z,57.92
2022-09-06T19:47:01.054Z,50.10
2022-09-06T19:49:30.577Z,49.78
2022-09-06T19:51:58.091Z,48.42
2022-09-06T19:54:25.748Z,58.10
2022-09-06T19:56:54.588Z,53.10
2022-09-06T19:59:22.107Z,48.33
2022-09-06T20:01:49.684Z,53.10
2022-09-06T20:04:17.218Z,54.42
2022-09-06T20:06:45.261Z,52.17
2022-09-06T20:09:13.201Z,55.50
2022-09-06T20:11:41.980Z,59.47
2022-09-06T20:14:11.722Z,58.88
2022-09-06T20:16:42.277Z,54.65
2022-09-06T20:19:10.706Z,48.25
2022-09-06T20:21:38.207Z,33.13
2022-09-06T20:24:05.999Z,38.58
2022-09-06T20:26:33.507Z,42.92
2022-09-06T20:29:03.267Z,39.38
2022-09-06T20:31:33.362Z,32.17
2022-09-06T20:34:02.883Z,30.40
2022-09-06T20:36:30.527Z,34.15
2022-09-06T20:38:58.266Z,32.28
2022-09-06T20:41:27.214Z,33.70
2022-09-06T20:43:56.137Z,31.98
2022-09-06T20:46:25.610Z,35.17
2022-09-06T20:48:57.172Z,33.88
2022-09-06T20:51:25.186Z,37.22
2022-09-06T20:53:56.327Z,32.80
2022-09-06T20:56:26.392Z,35.80
2022-09-06T20:58:55.892Z,37.42
2022-09-06T21:01:25.361Z,30.70
2022-09-06T21:03:56.394Z,26.75
2022-09-06T21:06:25.532Z,36.10
2022-09-06T21:08:53.627Z,39.92
2022-09-06T21:11:21.356Z,45.85
2022-09-06T21:13:50.324Z,34.58
2022-09-06T21:16:23.291Z,31.45
2022-09-06T21:18:54.079Z,28.02
2022-09-06T21:21:22.405Z,25.08
2022-09-06T21:23:50.330Z,29.60
2022-09-06T21:26:18.145Z,29.65
2022-09-06T21:28:47.050Z,35.05
2022-09-06T21:31:15.973Z,39.33
2022-09-06T21:33:46.153Z,34.17
2022-09-06T21:36:16.522Z,40.38
2022-09-06T21:38:45.390Z,37.55
2022-09-06T21:41:14.275Z,32.70
2022-09-06T21:43:42.612Z,34.47
2022-09-06T21:46:12.473Z,33.50
2022-09-06T21:48:40.488Z,22.33
2022-09-06T21:51:08.595Z,43.47
2022-09-06T21:53:38.216Z,29.13
2022-09-06T21:56:06.482Z,39.83
2022-09-06T21:58:34.604Z,40.55
2022-09-06T22:01:02.992Z,39.85
2022-09-06T22:03:31.765Z,43.22
2022-09-06T22:05:59.917Z,45.53
2022-09-06T22:08:27.454Z,42.67
2022-09-06T22:10:56.263Z,40.08
2022-09-06T22:13:23.804Z,39.40
2022-09-06T22:15:51.315Z,29.73
2022-09-06T22:18:18.879Z,43.20
2022-09-06T22:20:46.351Z,44.95
2022-09-06T22:23:13.855Z,49.03
2022-09-06T22:25:41.932Z,48.45
2022-09-06T22:28:10.776Z,47.75
2022-09-06T22:30:38.255Z,50.20
2022-09-06T22:33:05.767Z,46.50
2022-09-06T22:35:33.256Z,49.85
2022-09-06T22:38:00.795Z,45.17
2022-09-06T22:40:28.290Z,38.47
2022-09-06T22:42:55.789Z,39.25
2022-09-06T22:45:24.672Z,41.65
2022-09-06T22:47:52.163Z,34.08
2022-09-06T22:50:19.671Z,46.10
2022-09-06T22:52:47.279Z,44.47
2022-09-06T22:55:14.958Z,33.90
2022-09-06T22:57:42.513Z,37.00
2022-09-06T23:00:11.607Z,46.42
2022-09-06T23:02:40.459Z,40.55
2022-09-06T23:05:08.691Z,49.03
2022-09-06T23:07:36.620Z,57.55
2022-09-06T23:10:04.730Z,39.08
2022-09-06T23:12:32.252Z,51.65
2022-09-06T23:14:59.750Z,47.80
2022-09-06T23:17:27.289Z,51.58
2022-09-06T23:19:56.112Z,49.50
2022-09-06T23:22:23.631Z,50.05
2022-09-06T23:24:51.148Z,57.63
2022-09-06T23:27:18.760Z,43.55
2022-09-06T23:29:46.277Z,25.85
2022-09-06T23:32:13.968Z,36.65
2022-09-06T23:34:41.510Z,64.93
2022-09-06T23:37:10.391Z,53.10
2022-09-06T23:39:37.936Z,50.78
2022-09-06T23:42:05.520Z,46.55
2022-09-06T23:44:33.026Z,46.63
2022-09-06T23:47:00.545Z,45.17
2022-09-06T23:49:28.093Z,47.67
2022-09-06T23:51:55.622Z,47.83
2022-09-06T23:54:24.516Z,49.95
2022-09-06T23:56:51.998Z,48.65
2022-09-06T23:59:19.490Z,42.08
